createdAt,value
2018-07-20T00:00:07.815Z,0
2018-07-20T00:01:07.718Z,0
2018-07-20T00:02:07.825Z,0
2018-07-20T00:03:07.763Z,0
2018-07-20T00:04:07.935Z,0
2018-07-20T00:05:07.840Z,0
2018-07-20T00:06:07.917Z,0
2018-07-20T00:07:07.914Z,0
2018-07-20T00:08:07.880Z,0
2018-07-20T00:09:07.866Z,0
2018-07-20T00:10:07.862Z,0
2018-07-20T00:11:07.826Z,0
2018-07-20T00:12:07.880Z,0
2018-07-20T00:13:07.921Z,0
2018-07-20T00:14:07.777Z,0
2018-07-20T00:15:07.915Z,0
2018-07-20T00:16:07.903Z,0
2018-07-20T00:17:07.849Z,0
2018-07-20T00:18:07.901Z,0
2018-07-20T00:19:07.785Z,0
2018-07-20T00:20:07.830Z,0
2018-07-20T00:21:07.848Z,0
2018-07-20T00:22:07.796Z,0
2018-07-20T00:23:07.904Z,0
2018-07-20T00:24:07.852Z,0
2018-07-20T00:25:07.935Z,0
2018-07-20T00:26:07.874Z,0
2018-07-20T00:27:07.909Z,0
2018-07-20T00:28:07.879Z,0
2018-07-20T00:29:07.913Z,0
2018-07-20T00:30:07.950Z,0
2018-07-20T00:31:07.947Z,0
2018-07-20T00:32:07.986Z,0
2018-07-20T00:33:07.818Z,0
2018-07-20T00:34:07.916Z,0
2018-07-20T00:35:07.927Z,0
2018-07-20T00:36:07.920Z,0
2018-07-20T00:37:07.854Z,0
2018-07-20T00:38:07.854Z,0
2018-07-20T00:39:07.932Z,0
2018-07-20T00:40:07.860Z,0
2018-07-20T00:41:07.855Z,0
2018-07-20T00:42:07.923Z,0
2018-07-20T00:43:07.861Z,0
2018-07-20T00:44:07.828Z,0
2018-07-20T00:45:07.947Z,0
2018-07-20T00:46:07.851Z,0
2018-07-20T00:47:07.948Z,0
2018-07-20T00:48:07.879Z,0
2018-07-20T00:49:07.957Z,0
2018-07-20T00:50:07.893Z,0
2018-07-20T00:51:07.906Z,0
2018-07-20T00:52:07.951Z,0
2018-07-20T00:53:07.852Z,0
2018-07-20T00:54:07.864Z,0
2018-07-20T00:55:07.865Z,0
2018-07-20T00:56:07.868Z,0
2018-07-20T00:57:07.863Z,0
2018-07-20T00:58:07.934Z,0
2018-07-20T00:59:07.932Z,0
2018-07-20T01:00:07.866Z,0
2018-07-20T01:01:07.875Z,0
2018-07-20T01:02:07.873Z,0
2018-07-20T01:03:07.935Z,0
2018-07-20T01:04:07.977Z,0
2018-07-20T01:05:07.945Z,0
2018-07-20T01:06:07.882Z,0
2018-07-20T01:07:07.938Z,0
2018-07-20T01:08:07.983Z,0
2018-07-20T01:09:07.941Z,0
2018-07-20T01:10:07.865Z,0
2018-07-20T01:11:07.871Z,0
2018-07-20T01:12:07.921Z,0
2018-07-20T01:13:07.884Z,0
2018-07-20T01:14:07.976Z,0
2018-07-20T01:15:07.978Z,0
2018-07-20T01:16:07.985Z,0
2018-07-20T01:17:07.925Z,0
2018-07-20T01:18:07.871Z,0
2018-07-20T01:19:07.989Z,0
2018-07-20T01:20:07.926Z,0
2018-07-20T01:21:07.876Z,0
2018-07-20T01:22:07.871Z,0
2018-07-20T01:23:07.911Z,0
2018-07-20T01:24:07.948Z,0
2018-07-20T01:25:07.994Z,0
2018-07-20T01:26:07.915Z,0
2018-07-20T01:27:07.923Z,0
2018-07-20T01:28:07.860Z,0
2018-07-20T01:29:07.922Z,0
2018-07-20T01:30:07.920Z,0
2018-07-20T01:31:07.928Z,0
2018-07-20T01:32:07.864Z,0
2018-07-20T01:33:07.978Z,0
2018-07-20T01:34:07.994Z,0
2018-07-20T01:35:07.964Z,0
2018-07-20T01:36:07.981Z,0
2018-07-20T01:37:07.902Z,0
2018-07-20T01:38:07.879Z,0
2018-07-20T01:39:07.941Z,0
2018-07-20T01:40:07.934Z,0
2018-07-20T01:41:07.979Z,0
2018-07-20T01:42:08.021Z,0
2018-07-20T01:43:07.984Z,0
2018-07-20T01:44:08.004Z,0
2018-07-20T01:45:07.921Z,0
2018-07-20T01:46:07.871Z,0
2018-07-20T01:47:07.927Z,0
2018-07-20T01:48:08.009Z,0
2018-07-20T01:49:07.895Z,0
2018-07-20T01:50:07.969Z,0
2018-07-20T01:51:07.935Z,0
2018-07-20T01:52:07.969Z,0
2018-07-20T01:53:07.991Z,0
2018-07-20T01:54:07.900Z,0
2018-07-20T01:55:07.970Z,0
2018-07-20T01:56:07.906Z,0
2018-07-20T01:57:07.908Z,0
2018-07-20T01:58:08.033Z,0
2018-07-20T01:59:07.924Z,0
2018-07-20T02:00:08.015Z,0
2018-07-20T02:01:07.978Z,0
2018-07-20T02:02:07.978Z,0
2018-07-20T02:03:07.918Z,0
2018-07-20T02:04:07.918Z,0
2018-07-20T02:05:07.979Z,0
2018-07-20T02:06:07.916Z,0
2018-07-20T02:07:07.980Z,0
2018-07-20T02:08:07.983Z,0
2018-07-20T02:09:07.914Z,0
2018-07-20T02:10:07.980Z,0
2018-07-20T02:11:07.982Z,0
2018-07-20T02:12:07.918Z,0
2018-07-20T02:13:07.936Z,0
2018-07-20T02:14:08.018Z,0
2018-07-20T02:15:07.937Z,0
2018-07-20T02:16:07.978Z,0
2018-07-20T02:17:08.015Z,0
2018-07-20T02:18:08.029Z,0
2018-07-20T02:19:07.928Z,0
2018-07-20T02:20:07.955Z,0
2018-07-20T02:21:07.893Z,0
2018-07-20T02:22:07.963Z,0
2018-07-20T02:23:07.955Z,0
2018-07-20T02:24:08.017Z,0
2018-07-20T02:25:07.909Z,0
2018-07-20T02:26:07.917Z,0
2018-07-20T02:27:07.894Z,0
2018-07-20T02:28:07.970Z,0
2018-07-20T02:29:07.900Z,0
2018-07-20T02:30:08.046Z,0
2018-07-20T02:31:08.025Z,0
2018-07-20T02:32:07.956Z,0
2018-07-20T02:33:08.000Z,0
2018-07-20T02:34:07.974Z,0
2018-07-20T02:35:07.956Z,0
2018-07-20T02:36:08.001Z,0
2018-07-20T02:37:07.944Z,0
2018-07-20T02:38:07.995Z,0
2018-07-20T02:39:08.045Z,0
2018-07-20T02:40:08.039Z,0
2018-07-20T02:41:07.974Z,0
2018-07-20T02:42:08.078Z,0
2018-07-20T02:43:08.013Z,0
2018-07-20T02:44:08.006Z,0
2018-07-20T02:45:08.045Z,0
2018-07-20T02:46:08.009Z,0
2018-07-20T02:47:07.983Z,0
2018-07-20T02:48:08.021Z,0
2018-07-20T02:49:07.950Z,0
2018-07-20T02:50:07.991Z,0
2018-07-20T02:51:07.973Z,0
2018-07-20T02:52:08.015Z,0
2018-07-20T02:53:08.015Z,0
2018-07-20T02:54:08.050Z,0
2018-07-20T02:55:08.057Z,0
2018-07-20T02:56:08.013Z,0
2018-07-20T02:57:07.972Z,0
2018-07-20T02:58:07.918Z,0
2018-07-20T02:59:16.569Z,0
2018-07-20T03:00:07.984Z,0
2018-07-20T03:01:07.937Z,0
2018-07-20T03:02:07.989Z,0
2018-07-20T03:03:07.944Z,0
2018-07-20T03:04:07.996Z,0
2018-07-20T03:05:07.975Z,0
2018-07-20T03:06:08.056Z,0
2018-07-20T03:07:08.027Z,0
2018-07-20T03:08:07.965Z,0
2018-07-20T03:09:08.013Z,5
2018-07-20T03:10:07.933Z,5
2018-07-20T03:11:07.997Z,5
2018-07-20T03:12:07.931Z,5
2018-07-20T03:13:08.052Z,5
2018-07-20T03:14:07.959Z,5
2018-07-20T03:15:08.029Z,5
2018-07-20T03:16:07.961Z,11
2018-07-20T03:17:08.031Z,11
2018-07-20T03:18:07.960Z,11
2018-07-20T03:19:08.044Z,11
2018-07-20T03:20:08.033Z,16
2018-07-20T03:21:08.017Z,16
2018-07-20T03:22:07.971Z,16
2018-07-20T03:23:08.032Z,22
2018-07-20T03:24:08.011Z,22
2018-07-20T03:25:07.936Z,22
2018-07-20T03:26:08.002Z,28
2018-07-20T03:27:07.954Z,28
2018-07-20T03:28:08.041Z,28
2018-07-20T03:29:08.002Z,33
2018-07-20T03:30:08.008Z,33
2018-07-20T03:31:08.073Z,39
2018-07-20T03:32:07.943Z,39
2018-07-20T03:33:08.000Z,45
2018-07-20T03:34:08.042Z,45
2018-07-20T03:35:07.974Z,50
2018-07-20T03:36:08.062Z,50
2018-07-20T03:37:07.989Z,56
2018-07-20T03:38:08.041Z,56
2018-07-20T03:39:08.042Z,61
2018-07-20T03:40:08.046Z,67
2018-07-20T03:41:07.976Z,67
2018-07-20T03:42:08.043Z,73
2018-07-20T03:43:07.981Z,78
2018-07-20T03:44:08.063Z,84
2018-07-20T03:45:08.077Z,84
2018-07-20T03:46:08.072Z,90
2018-07-20T03:47:08.042Z,95
2018-07-20T03:48:07.951Z,101
2018-07-20T03:49:08.150Z,106
2018-07-20T03:50:08.015Z,106
2018-07-20T03:51:08.047Z,112
2018-07-20T03:52:08.051Z,118
2018-07-20T03:53:08.050Z,123
2018-07-20T03:54:07.975Z,123
2018-07-20T03:55:08.053Z,129
2018-07-20T03:56:07.949Z,135
2018-07-20T03:57:08.085Z,140
2018-07-20T03:58:08.092Z,146
2018-07-20T03:59:08.019Z,151
2018-07-20T04:00:08.076Z,157
2018-07-20T04:01:08.071Z,157
2018-07-20T04:02:08.034Z,163
2018-07-20T04:03:08.101Z,168
2018-07-20T04:04:08.066Z,174
2018-07-20T04:05:08.081Z,180
2018-07-20T04:06:08.060Z,185
2018-07-20T04:07:08.074Z,191
2018-07-20T04:08:07.969Z,196
2018-07-20T04:09:08.042Z,208
2018-07-20T04:10:08.035Z,208
2018-07-20T04:11:08.006Z,213
2018-07-20T04:12:08.084Z,219
2018-07-20T04:13:07.970Z,225
2018-07-20T04:14:08.024Z,230
2018-07-20T04:15:08.049Z,241
2018-07-20T04:16:08.054Z,247
2018-07-20T04:17:08.004Z,258
2018-07-20T04:18:07.974Z,258
2018-07-20T04:19:07.943Z,264
2018-07-20T04:20:08.056Z,275
2018-07-20T04:21:08.062Z,281
2018-07-20T04:22:08.069Z,286
2018-07-20T04:23:07.940Z,292
2018-07-20T04:24:08.008Z,298
2018-07-20T04:25:08.071Z,303
2018-07-20T04:26:08.117Z,315
2018-07-20T04:27:08.103Z,326
2018-07-20T04:28:08.096Z,331
2018-07-20T04:29:08.076Z,343
2018-07-20T04:30:08.055Z,343
2018-07-20T04:31:07.972Z,343
2018-07-20T04:32:08.078Z,348
2018-07-20T04:33:08.048Z,354
2018-07-20T04:34:08.042Z,360
2018-07-20T04:35:08.080Z,365
2018-07-20T04:36:08.014Z,365
2018-07-20T04:37:08.014Z,371
2018-07-20T04:38:08.084Z,376
2018-07-20T04:39:08.021Z,382
2018-07-20T04:40:08.015Z,382
2018-07-20T04:41:08.082Z,388
2018-07-20T04:42:08.081Z,393
2018-07-20T04:43:08.022Z,399
2018-07-20T04:44:08.017Z,405
2018-07-20T04:45:08.046Z,405
2018-07-20T04:46:08.083Z,410
2018-07-20T04:47:08.086Z,416
2018-07-20T04:48:08.047Z,427
2018-07-20T04:49:08.070Z,433
2018-07-20T04:50:08.052Z,444
2018-07-20T04:51:08.109Z,450
2018-07-20T04:52:08.153Z,455
2018-07-20T04:53:07.994Z,461
2018-07-20T04:54:08.117Z,466
2018-07-20T04:55:07.988Z,478
2018-07-20T04:56:08.000Z,489
2018-07-20T04:57:07.992Z,500
2018-07-20T04:58:08.017Z,511
2018-07-20T04:59:07.956Z,523
2018-07-20T05:00:08.040Z,534
2018-07-20T05:01:08.046Z,545
2018-07-20T05:02:07.951Z,556
2018-07-20T05:03:08.047Z,568
2018-07-20T05:04:08.050Z,579
2018-07-20T05:05:08.060Z,590
2018-07-20T05:06:08.037Z,601
2018-07-20T05:07:08.104Z,613
2018-07-20T05:08:08.058Z,607
2018-07-20T05:09:08.099Z,618
2018-07-20T05:10:08.036Z,624
2018-07-20T05:11:08.103Z,630
2018-07-20T05:12:08.040Z,635
2018-07-20T05:13:08.041Z,641
2018-07-20T05:14:08.041Z,646
2018-07-20T05:15:08.042Z,652
2018-07-20T05:16:08.105Z,663
2018-07-20T05:17:08.106Z,669
2018-07-20T05:18:08.107Z,675
2018-07-20T05:19:08.110Z,686
2018-07-20T05:20:08.040Z,686
2018-07-20T05:21:08.108Z,697
2018-07-20T05:22:08.049Z,703
2018-07-20T05:23:08.045Z,714
2018-07-20T05:24:08.169Z,720
2018-07-20T05:25:08.129Z,725
2018-07-20T05:26:08.038Z,736
2018-07-20T05:27:08.075Z,742
2018-07-20T05:28:08.027Z,759
2018-07-20T05:29:08.056Z,770
2018-07-20T05:30:08.090Z,781
2018-07-20T05:31:08.077Z,793
2018-07-20T05:32:08.143Z,804
2018-07-20T05:33:08.091Z,821
2018-07-20T05:34:08.097Z,821
2018-07-20T05:35:08.006Z,832
2018-07-20T05:36:08.044Z,843
2018-07-20T05:37:08.116Z,849
2018-07-20T05:38:08.091Z,855
2018-07-20T05:39:08.113Z,866
2018-07-20T05:40:07.995Z,871
2018-07-20T05:41:08.112Z,883
2018-07-20T05:42:08.115Z,888
2018-07-20T05:43:07.993Z,900
2018-07-20T05:44:08.057Z,911
2018-07-20T05:45:08.140Z,905
2018-07-20T05:46:08.125Z,928
2018-07-20T05:47:08.061Z,950
2018-07-20T05:48:08.128Z,967
2018-07-20T05:49:08.063Z,995
2018-07-20T05:50:08.132Z,1029
2018-07-20T05:51:08.063Z,1181
2018-07-20T05:52:08.130Z,1310
2018-07-20T05:53:08.065Z,1316
2018-07-20T05:54:08.067Z,1350
2018-07-20T05:55:08.172Z,1338
2018-07-20T05:56:08.131Z,1395
2018-07-20T05:57:08.067Z,1400
2018-07-20T05:58:08.136Z,1434
2018-07-20T05:59:08.134Z,1513
2018-07-20T06:00:08.136Z,1518
2018-07-20T06:01:08.070Z,1490
2018-07-20T06:02:08.140Z,1535
2018-07-20T06:03:08.071Z,1524
2018-07-20T06:04:08.219Z,1552
2018-07-20T06:05:08.136Z,1569
2018-07-20T06:06:08.072Z,1586
2018-07-20T06:07:08.111Z,1603
2018-07-20T06:08:08.126Z,1608
2018-07-20T06:09:08.112Z,1608
2018-07-20T06:10:08.120Z,1580
2018-07-20T06:11:08.117Z,1580
2018-07-20T06:12:08.105Z,1558
2018-07-20T06:13:08.118Z,1530
2018-07-20T06:14:08.208Z,1546
2018-07-20T06:15:08.099Z,1479
2018-07-20T06:16:08.130Z,1243
2018-07-20T06:17:08.132Z,1316
2018-07-20T06:18:08.131Z,1321
2018-07-20T06:19:08.092Z,1400
2018-07-20T06:20:08.072Z,1530
2018-07-20T06:21:08.048Z,1434
2018-07-20T06:22:08.103Z,1535
2018-07-20T06:23:08.077Z,1333
2018-07-20T06:24:08.092Z,1395
2018-07-20T06:25:08.115Z,1378
2018-07-20T06:26:08.177Z,1636
2018-07-20T06:27:08.113Z,1704
2018-07-20T06:28:08.092Z,1766
2018-07-20T06:29:08.117Z,1766
2018-07-20T06:30:08.117Z,1603
2018-07-20T06:31:08.279Z,1591
2018-07-20T06:32:08.140Z,1400
2018-07-20T06:33:08.135Z,1411
2018-07-20T06:34:08.062Z,1423
2018-07-20T06:35:08.069Z,1440
2018-07-20T06:36:08.159Z,1726
2018-07-20T06:37:08.159Z,1704
2018-07-20T06:38:08.122Z,1575
2018-07-20T06:39:08.177Z,1794
2018-07-20T06:40:08.124Z,1710
2018-07-20T06:41:08.130Z,1501
2018-07-20T06:42:08.147Z,1569
2018-07-20T06:43:08.300Z,1755
2018-07-20T06:44:08.201Z,1558
2018-07-20T06:45:08.200Z,1580
2018-07-20T06:46:08.071Z,1653
2018-07-20T06:47:08.263Z,1552
2018-07-20T06:48:08.151Z,1591
2018-07-20T06:49:08.175Z,1665
2018-07-20T06:50:08.111Z,1642
2018-07-20T06:51:08.194Z,1631
2018-07-20T06:52:08.204Z,1710
2018-07-20T06:53:08.131Z,1845
2018-07-20T06:54:08.207Z,1766
2018-07-20T06:55:08.154Z,1783
2018-07-20T06:56:08.082Z,2109
2018-07-20T06:57:08.133Z,2266
2018-07-20T06:58:08.205Z,2379
2018-07-20T06:59:08.197Z,2098
2018-07-20T07:00:08.131Z,1912
2018-07-20T07:01:08.087Z,2053
2018-07-20T07:02:08.138Z,1940
2018-07-20T07:03:08.100Z,1822
2018-07-20T07:04:08.140Z,1749
2018-07-20T07:05:08.097Z,1743
2018-07-20T07:06:08.140Z,1760
2018-07-20T07:07:08.184Z,1732
2018-07-20T07:08:08.209Z,1749
2018-07-20T07:09:08.208Z,1777
2018-07-20T07:10:08.144Z,2086
2018-07-20T07:11:08.218Z,1845
2018-07-20T07:12:08.187Z,2013
2018-07-20T07:13:08.208Z,1996
2018-07-20T07:14:08.224Z,1845
2018-07-20T07:15:08.179Z,1839
2018-07-20T07:16:08.207Z,1822
2018-07-20T07:17:08.217Z,1839
2018-07-20T07:18:08.205Z,1901
2018-07-20T07:19:08.123Z,1822
2018-07-20T07:20:08.215Z,2514
2018-07-20T07:21:08.095Z,2340
2018-07-20T07:22:08.214Z,1878
2018-07-20T07:23:08.169Z,2227
2018-07-20T07:24:08.169Z,2131
2018-07-20T07:25:08.215Z,1929
2018-07-20T07:26:08.219Z,1906
2018-07-20T07:27:08.169Z,2272
2018-07-20T07:28:08.165Z,2626
2018-07-20T07:29:08.207Z,2570
2018-07-20T07:30:08.148Z,2182
2018-07-20T07:31:08.198Z,2120
2018-07-20T07:32:08.123Z,2441
2018-07-20T07:33:08.178Z,2227
2018-07-20T07:34:08.195Z,2176
2018-07-20T07:35:08.077Z,2328
2018-07-20T07:36:08.194Z,2446
2018-07-20T07:37:08.073Z,2469
2018-07-20T07:38:08.196Z,2542
2018-07-20T07:39:08.154Z,2548
2018-07-20T07:40:08.156Z,2615
2018-07-20T07:41:08.138Z,2491
2018-07-20T07:42:08.107Z,2345
2018-07-20T07:43:08.156Z,2148
2018-07-20T07:44:08.107Z,2233
2018-07-20T07:45:08.242Z,2497
2018-07-20T07:46:08.214Z,2604
2018-07-20T07:47:08.244Z,2638
2018-07-20T07:48:08.184Z,2773
2018-07-20T07:49:08.208Z,2750
2018-07-20T07:50:08.212Z,2705
2018-07-20T07:51:08.120Z,2660
2018-07-20T07:52:08.227Z,2823
2018-07-20T07:53:08.235Z,2784
2018-07-20T07:54:08.209Z,2880
2018-07-20T07:55:08.215Z,2902
2018-07-20T07:56:08.147Z,2778
2018-07-20T07:57:08.150Z,2733
2018-07-20T07:58:08.214Z,3110
2018-07-20T07:59:08.172Z,3240
2018-07-20T08:00:08.215Z,3262
2018-07-20T08:01:08.153Z,3296
2018-07-20T08:02:08.152Z,3262
2018-07-20T08:03:08.168Z,3425
2018-07-20T08:04:08.219Z,3476
2018-07-20T08:05:08.241Z,3566
2018-07-20T08:06:08.239Z,3712
2018-07-20T08:07:08.244Z,3763
2018-07-20T08:08:08.268Z,3757
2018-07-20T08:09:08.134Z,3678
2018-07-20T08:10:08.428Z,3735
2018-07-20T08:11:08.125Z,3780
2018-07-20T08:12:08.221Z,3808
2018-07-20T08:13:08.260Z,3751
2018-07-20T08:14:08.238Z,3813
2018-07-20T08:15:08.204Z,3763
2018-07-20T08:16:08.270Z,3808
2018-07-20T08:17:08.254Z,3864
2018-07-20T08:18:08.215Z,3926
2018-07-20T08:19:08.266Z,3954
2018-07-20T08:20:08.154Z,3976
2018-07-20T08:21:08.130Z,3971
2018-07-20T08:22:08.237Z,3976
2018-07-20T08:23:08.210Z,3965
2018-07-20T08:24:08.255Z,3960
2018-07-20T08:25:08.174Z,3982
2018-07-20T08:26:08.133Z,3988
2018-07-20T08:27:08.196Z,4072
2018-07-20T08:28:08.154Z,4005
2018-07-20T08:29:08.236Z,3982
2018-07-20T08:30:08.140Z,4021
2018-07-20T08:31:08.274Z,3903
2018-07-20T08:32:08.217Z,3875
2018-07-20T08:33:08.266Z,3712
2018-07-20T08:34:08.236Z,3487
2018-07-20T08:35:08.241Z,3273
2018-07-20T08:36:08.242Z,3105
2018-07-20T08:37:08.219Z,2885
2018-07-20T08:38:08.216Z,2913
2018-07-20T08:39:08.222Z,2986
2018-07-20T08:40:08.142Z,3313
2018-07-20T08:41:08.255Z,3335
2018-07-20T08:42:08.265Z,3240
2018-07-20T08:43:08.271Z,3273
2018-07-20T08:44:08.167Z,3228
2018-07-20T08:45:08.278Z,3183
2018-07-20T08:46:08.244Z,3043
2018-07-20T08:47:08.230Z,3127
2018-07-20T08:48:08.229Z,3195
2018-07-20T08:49:08.249Z,3324
2018-07-20T08:50:08.281Z,3436
2018-07-20T08:51:08.213Z,3695
2018-07-20T08:52:08.152Z,3836
2018-07-20T08:53:08.281Z,3903
2018-07-20T08:54:08.340Z,4005
2018-07-20T08:55:08.255Z,4443
2018-07-20T08:56:08.231Z,4471
2018-07-20T08:57:08.216Z,4348
2018-07-20T08:58:08.286Z,4111
2018-07-20T08:59:08.392Z,4027
2018-07-20T09:00:08.228Z,4078
2018-07-20T09:01:08.233Z,4005
2018-07-20T09:02:08.166Z,4044
2018-07-20T09:03:08.260Z,4089
2018-07-20T09:04:08.289Z,4089
2018-07-20T09:05:08.261Z,3661
2018-07-20T09:06:08.194Z,3391
2018-07-20T09:07:08.227Z,3594
2018-07-20T09:08:08.310Z,4449
2018-07-20T09:09:08.234Z,4263
2018-07-20T09:10:08.287Z,4111
2018-07-20T09:11:08.309Z,3858
2018-07-20T09:12:08.286Z,3695
2018-07-20T09:13:08.248Z,3926
2018-07-20T09:14:08.224Z,3751
2018-07-20T09:15:08.296Z,4370
2018-07-20T09:16:08.224Z,4651
2018-07-20T09:17:08.271Z,4826
2018-07-20T09:18:08.174Z,4854
2018-07-20T09:19:08.270Z,4522
2018-07-20T09:20:08.240Z,3819
2018-07-20T09:21:08.308Z,3802
2018-07-20T09:22:08.273Z,4224
2018-07-20T09:23:08.246Z,4314
2018-07-20T09:24:08.296Z,4246
2018-07-20T09:25:08.179Z,4691
2018-07-20T09:26:08.237Z,4145
2018-07-20T09:27:08.245Z,3892
2018-07-20T09:28:08.248Z,4162
2018-07-20T09:29:08.296Z,4066
2018-07-20T09:30:08.240Z,4275
2018-07-20T09:31:08.320Z,4269
2018-07-20T09:32:08.277Z,3988
2018-07-20T09:33:08.318Z,3616
2018-07-20T09:34:08.368Z,3380
2018-07-20T09:35:08.283Z,3206
2018-07-20T09:36:08.326Z,3093
2018-07-20T09:37:08.313Z,3003
2018-07-20T09:38:08.306Z,2964
2018-07-20T09:39:08.288Z,2992
2018-07-20T09:40:08.292Z,3335
2018-07-20T09:41:08.322Z,3504
2018-07-20T09:42:08.244Z,3318
2018-07-20T09:43:08.312Z,3870
2018-07-20T09:44:08.286Z,4134
2018-07-20T09:45:08.290Z,4291
2018-07-20T09:46:08.196Z,4252
2018-07-20T09:47:08.221Z,4353
2018-07-20T09:48:08.275Z,4376
2018-07-20T09:49:08.295Z,4500
2018-07-20T09:50:08.159Z,4578
2018-07-20T09:51:08.244Z,4730
2018-07-20T09:52:08.248Z,4803
2018-07-20T09:53:08.250Z,4685
2018-07-20T09:54:08.283Z,4601
2018-07-20T09:55:08.234Z,4320
2018-07-20T09:56:08.286Z,4342
2018-07-20T09:57:08.220Z,4151
2018-07-20T09:58:08.218Z,4623
2018-07-20T09:59:08.248Z,4623
2018-07-20T10:00:08.291Z,5034
2018-07-20T10:01:08.205Z,5017
2018-07-20T10:02:08.285Z,5146
2018-07-20T10:03:08.169Z,5276
2018-07-20T10:04:08.255Z,5287
2018-07-20T10:05:08.292Z,5321
2018-07-20T10:06:08.305Z,5175
2018-07-20T10:07:08.240Z,5135
2018-07-20T10:08:08.371Z,5146
2018-07-20T10:09:08.315Z,4972
2018-07-20T10:10:08.242Z,4983
2018-07-20T10:11:08.307Z,4972
2018-07-20T10:12:08.345Z,5118
2018-07-20T10:13:08.244Z,5124
2018-07-20T10:14:08.244Z,5135
2018-07-20T10:15:08.403Z,5236
2018-07-20T10:16:08.313Z,5208
2018-07-20T10:17:08.242Z,5388
2018-07-20T10:18:08.302Z,5304
2018-07-20T10:19:08.351Z,5113
2018-07-20T10:20:08.305Z,5197
2018-07-20T10:21:08.247Z,5135
2018-07-20T10:22:08.302Z,4983
2018-07-20T10:23:08.261Z,5017
2018-07-20T10:24:08.252Z,4809
2018-07-20T10:25:08.234Z,4871
2018-07-20T10:26:08.251Z,4826
2018-07-20T10:28:08.254Z,4747
2018-07-20T10:29:08.257Z,4483
2018-07-20T10:30:08.317Z,4561
2018-07-20T10:31:08.253Z,4196
2018-07-20T10:32:08.321Z,4573
2018-07-20T10:33:08.255Z,4786
2018-07-20T10:34:08.254Z,4663
2018-07-20T10:35:08.289Z,4545
2018-07-20T10:36:08.344Z,4359
2018-07-20T10:37:08.325Z,3892
2018-07-20T10:38:08.353Z,3971
2018-07-20T10:39:08.227Z,4033
2018-07-20T10:40:08.230Z,3926
2018-07-20T10:41:08.296Z,3633
2018-07-20T10:42:08.349Z,3448
2018-07-20T10:43:08.423Z,3324
2018-07-20T10:44:08.325Z,3228
2018-07-20T10:45:08.296Z,3448
2018-07-20T10:46:08.268Z,3712
2018-07-20T10:47:08.333Z,4089
2018-07-20T10:48:08.337Z,4162
2018-07-20T10:49:08.332Z,4646
2018-07-20T10:50:08.460Z,4905
2018-07-20T10:51:08.336Z,5326
2018-07-20T10:52:08.436Z,5467
2018-07-20T10:53:08.296Z,5355
2018-07-20T10:54:08.303Z,5366
2018-07-20T10:55:08.353Z,5355
2018-07-20T10:56:08.303Z,5270
2018-07-20T10:57:08.302Z,5225
2018-07-20T10:58:08.367Z,5045
2018-07-20T10:59:08.359Z,5253
2018-07-20T11:00:08.304Z,5259
2018-07-20T11:01:08.246Z,5405
2018-07-20T11:02:08.314Z,5281
2018-07-20T11:03:08.371Z,5287
2018-07-20T11:04:08.378Z,5371
2018-07-20T11:05:08.345Z,5388
2018-07-20T11:06:08.277Z,5293
2018-07-20T11:07:08.346Z,5175
2018-07-20T11:08:08.346Z,5276
2018-07-20T11:09:08.344Z,4916
2018-07-20T11:10:08.281Z,4910
2018-07-20T11:11:08.345Z,5034
2018-07-20T11:12:08.283Z,5011
2018-07-20T11:13:08.284Z,3684
2018-07-20T11:14:08.282Z,3324
2018-07-20T11:15:08.352Z,3493
2018-07-20T11:16:08.349Z,3740
2018-07-20T11:17:08.308Z,3785
2018-07-20T11:18:08.305Z,3982
2018-07-20T11:19:08.373Z,4421
2018-07-20T11:20:08.391Z,4550
2018-07-20T11:21:08.376Z,4646
2018-07-20T11:22:08.322Z,4837
2018-07-20T11:23:08.382Z,4966
2018-07-20T11:24:08.370Z,5045
2018-07-20T11:25:08.389Z,5405
2018-07-20T11:26:08.349Z,5495
2018-07-20T11:27:08.226Z,5653
2018-07-20T11:28:08.326Z,5281
2018-07-20T11:29:08.353Z,5034
2018-07-20T11:30:08.342Z,4893
2018-07-20T11:31:08.354Z,4820
2018-07-20T11:32:08.263Z,4888
2018-07-20T11:33:08.281Z,4899
2018-07-20T11:34:08.350Z,4747
2018-07-20T11:35:08.297Z,4708
2018-07-20T11:36:08.280Z,4899
2018-07-20T11:37:08.331Z,4837
2018-07-20T11:38:08.402Z,4978
2018-07-20T11:39:08.334Z,4657
2018-07-20T11:40:08.384Z,2615
2018-07-20T11:41:08.406Z,2587
2018-07-20T11:42:08.343Z,2576
2018-07-20T11:43:08.269Z,2655
2018-07-20T11:44:08.365Z,2773
2018-07-20T11:45:08.279Z,3954
2018-07-20T11:46:08.351Z,2385
2018-07-20T11:47:08.391Z,2407
2018-07-20T11:48:08.394Z,2829
2018-07-20T11:49:08.403Z,4151
2018-07-20T11:50:08.401Z,4224
2018-07-20T11:51:08.405Z,4500
2018-07-20T11:52:08.281Z,2643
2018-07-20T11:53:08.334Z,2520
2018-07-20T11:54:08.348Z,2536
2018-07-20T11:55:08.379Z,2514
2018-07-20T11:56:08.439Z,2559
2018-07-20T11:57:08.282Z,2486
2018-07-20T11:58:08.407Z,4471
2018-07-20T11:59:08.279Z,3656
2018-07-20T12:00:08.411Z,2823
2018-07-20T12:01:08.424Z,2373
2018-07-20T12:02:08.401Z,2272
2018-07-20T12:03:08.395Z,2261
2018-07-20T12:04:08.341Z,2272
2018-07-20T12:05:08.418Z,2345
2018-07-20T12:06:08.366Z,3555
2018-07-20T12:07:08.365Z,3155
2018-07-20T12:08:08.246Z,4668
2018-07-20T12:09:08.309Z,4831
2018-07-20T12:10:08.310Z,4561
2018-07-20T12:11:08.277Z,4854
2018-07-20T12:12:08.280Z,4111
2018-07-20T12:13:08.280Z,4252
2018-07-20T12:14:08.372Z,4201
2018-07-20T12:15:08.337Z,2739
2018-07-20T12:16:08.363Z,3656
2018-07-20T12:17:08.369Z,2525
2018-07-20T12:18:08.407Z,3408
2018-07-20T12:19:08.314Z,2981
2018-07-20T12:20:08.299Z,2705
2018-07-20T12:21:08.412Z,2373
2018-07-20T12:22:08.364Z,3926
2018-07-20T12:23:08.304Z,3611
2018-07-20T12:24:08.398Z,2745
2018-07-20T12:25:08.423Z,2340
2018-07-20T12:26:08.398Z,2289
2018-07-20T12:27:08.335Z,2328
2018-07-20T12:28:08.436Z,3358
2018-07-20T12:29:08.333Z,3481
2018-07-20T12:30:08.435Z,2655
2018-07-20T12:31:08.333Z,2413
2018-07-20T12:32:08.423Z,3650
2018-07-20T12:33:08.402Z,3915
2018-07-20T12:34:08.394Z,2497
2018-07-20T12:35:08.412Z,2452
2018-07-20T12:36:08.339Z,2418
2018-07-20T12:37:08.404Z,4038
2018-07-20T12:38:08.338Z,3476
2018-07-20T12:39:08.406Z,3611
2018-07-20T12:40:08.341Z,3661
2018-07-20T12:41:08.427Z,2930
2018-07-20T12:42:08.343Z,3937
2018-07-20T12:43:08.412Z,4263
2018-07-20T12:44:08.410Z,3465
2018-07-20T12:45:08.346Z,4505
2018-07-20T12:46:08.393Z,3628
2018-07-20T12:47:08.370Z,2469
2018-07-20T12:48:08.309Z,2463
2018-07-20T12:49:08.451Z,2418
2018-07-20T12:50:08.454Z,2379
2018-07-20T12:51:08.441Z,2368
2018-07-20T12:52:08.444Z,2340
2018-07-20T12:53:08.435Z,2356
2018-07-20T12:54:08.435Z,2379
2018-07-20T12:55:08.386Z,2463
2018-07-20T12:56:08.417Z,2621
2018-07-20T12:57:08.327Z,2885
2018-07-20T12:58:08.398Z,4196
2018-07-20T12:59:08.421Z,4545
2018-07-20T13:00:08.439Z,4741
2018-07-20T13:01:08.400Z,4207
2018-07-20T13:02:08.442Z,4213
2018-07-20T13:03:08.378Z,4033
2018-07-20T13:04:08.434Z,3830
2018-07-20T13:05:08.400Z,3768
2018-07-20T13:06:08.357Z,3841
2018-07-20T13:07:08.425Z,3915
2018-07-20T13:08:08.361Z,4275
2018-07-20T13:09:08.428Z,4258
2018-07-20T13:10:08.360Z,4213
2018-07-20T13:11:08.359Z,4162
2018-07-20T13:12:08.596Z,4117
2018-07-20T13:13:08.363Z,4010
2018-07-20T13:14:08.429Z,4021
2018-07-20T13:15:08.313Z,4173
2018-07-20T13:16:08.434Z,3993
2018-07-20T13:17:08.472Z,4095
2018-07-20T13:18:08.629Z,4258
2018-07-20T13:19:08.392Z,4303
2018-07-20T13:20:08.369Z,3993
2018-07-20T13:21:08.437Z,3813
2018-07-20T13:22:08.374Z,3746
2018-07-20T13:23:08.369Z,3937
2018-07-20T13:24:08.372Z,3746
2018-07-20T13:25:08.436Z,4291
2018-07-20T13:26:08.402Z,4325
2018-07-20T13:27:08.397Z,3937
2018-07-20T13:28:08.339Z,3211
2018-07-20T13:29:08.403Z,4072
2018-07-20T13:30:08.424Z,2351
2018-07-20T13:31:08.472Z,2272
2018-07-20T13:32:08.477Z,2199
2018-07-20T13:33:08.477Z,2919
2018-07-20T13:34:08.486Z,4505
2018-07-20T13:35:08.405Z,4702
2018-07-20T13:36:08.337Z,4663
2018-07-20T13:37:08.406Z,4646
2018-07-20T13:38:08.441Z,4443
2018-07-20T13:39:08.393Z,4533
2018-07-20T13:40:08.349Z,4516
2018-07-20T13:41:08.340Z,4488
2018-07-20T13:42:08.318Z,4471
2018-07-20T13:43:08.381Z,4455
2018-07-20T13:44:08.324Z,4280
2018-07-20T13:45:08.407Z,4179